createdAt,value
2016-10-24T00:01:05.687Z,0
2016-10-24T00:02:19.246Z,0
2016-10-24T00:03:32.172Z,0
2016-10-24T00:04:45.711Z,0
2016-10-24T00:05:59.312Z,0
2016-10-24T00:07:12.859Z,0
2016-10-24T00:08:26.431Z,0
2016-10-24T00:09:39.980Z,0
2016-10-24T00:10:53.021Z,0
2016-10-24T00:12:06.521Z,0
2016-10-24T00:13:20.057Z,0
2016-10-24T00:14:33.598Z,0
2016-10-24T00:15:46.103Z,0
2016-10-24T00:16:59.046Z,0
2016-10-24T00:18:12.636Z,0
2016-10-24T00:19:25.591Z,0
2016-10-24T00:20:39.105Z,0
2016-10-24T00:21:51.651Z,0
2016-10-24T00:23:05.247Z,0
2016-10-24T00:24:18.800Z,0
2016-10-24T00:25:32.341Z,0
2016-10-24T00:26:45.920Z,0
2016-10-24T00:27:59.567Z,0
2016-10-24T00:29:13.096Z,0
2016-10-24T00:30:25.825Z,0
2016-10-24T00:31:39.432Z,0
2016-10-24T00:32:52.505Z,0
2016-10-24T00:34:05.737Z,0
2016-10-24T00:35:19.281Z,0
2016-10-24T00:36:32.823Z,0
2016-10-24T00:37:46.372Z,0
2016-10-24T00:38:59.438Z,0
2016-10-24T00:40:12.483Z,0
2016-10-24T00:41:25.532Z,0
2016-10-24T00:42:39.144Z,0
2016-10-24T00:43:52.141Z,0
2016-10-24T00:45:04.688Z,0
2016-10-24T00:46:18.131Z,0
2016-10-24T00:47:31.209Z,0
2016-10-24T00:48:44.776Z,0
2016-10-24T00:49:58.335Z,0
2016-10-24T00:51:11.925Z,0
2016-10-24T00:52:25.463Z,0
2016-10-24T00:53:38.521Z,0
2016-10-24T00:54:52.063Z,0
2016-10-24T00:56:05.101Z,0
2016-10-24T00:57:18.673Z,0
2016-10-24T00:58:31.780Z,0
2016-10-24T00:59:45.324Z,0
2016-10-24T01:00:58.941Z,0
2016-10-24T01:02:12.434Z,0
2016-10-24T01:03:25.984Z,0
2016-10-24T01:04:39.554Z,0
2016-10-24T01:05:53.061Z,0
2016-10-24T01:07:06.098Z,0
2016-10-24T01:08:19.731Z,0
2016-10-24T01:09:33.343Z,0
2016-10-24T01:10:46.939Z,0
2016-10-24T01:12:00.540Z,0
2016-10-24T01:13:14.146Z,0
2016-10-24T01:14:27.683Z,0
2016-10-24T01:15:40.683Z,0
2016-10-24T01:16:54.330Z,0
2016-10-24T01:18:07.338Z,0
2016-10-24T01:19:21.244Z,0
2016-10-24T01:20:34.833Z,0
2016-10-24T01:21:48.041Z,0
2016-10-24T01:23:00.519Z,0
2016-10-24T01:24:14.110Z,0
2016-10-24T01:25:27.060Z,0
2016-10-24T01:26:40.158Z,0
2016-10-24T01:27:53.203Z,0
2016-10-24T01:29:06.187Z,0
2016-10-24T01:30:19.271Z,0
2016-10-24T01:31:32.794Z,0
2016-10-24T01:32:46.318Z,0
2016-10-24T01:33:59.868Z,0
2016-10-24T01:35:13.458Z,0
2016-10-24T01:36:27.467Z,0
2016-10-24T01:37:41.040Z,0
2016-10-24T01:38:54.617Z,0
2016-10-24T01:40:07.617Z,0
2016-10-24T01:41:21.218Z,0
2016-10-24T01:42:34.729Z,0
2016-10-24T01:43:48.279Z,0
2016-10-24T01:45:01.288Z,0
2016-10-24T01:46:14.917Z,0
2016-10-24T01:47:27.902Z,0
2016-10-24T01:48:41.420Z,0
2016-10-24T01:49:54.454Z,0
2016-10-24T01:51:08.007Z,0
2016-10-24T01:52:21.569Z,0
2016-10-24T01:53:34.643Z,0
2016-10-24T01:54:48.254Z,0
2016-10-24T01:56:01.225Z,0
2016-10-24T01:57:14.826Z,0
2016-10-24T01:58:27.363Z,0
2016-10-24T01:59:40.875Z,0
2016-10-24T02:00:54.412Z,0
2016-10-24T02:02:07.934Z,0
2016-10-24T02:03:20.413Z,0
2016-10-24T02:04:32.410Z,0
2016-10-24T02:05:46.033Z,0
2016-10-24T02:06:58.839Z,0
2016-10-24T02:08:11.935Z,0
2016-10-24T02:09:24.953Z,0
2016-10-24T02:10:38.534Z,0
2016-10-24T02:11:52.087Z,0
2016-10-24T02:13:05.717Z,0
2016-10-24T02:14:19.294Z,0
2016-10-24T02:15:32.829Z,0
2016-10-24T02:16:46.348Z,0
2016-10-24T02:17:59.865Z,0
2016-10-24T02:19:13.373Z,0
2016-10-24T02:20:27.244Z,0
2016-10-24T02:21:40.290Z,0
2016-10-24T02:22:53.271Z,0
2016-10-24T02:24:06.759Z,0
2016-10-24T02:25:20.264Z,0
2016-10-24T02:26:33.801Z,0
2016-10-24T02:27:46.858Z,0
2016-10-24T02:28:59.832Z,0
2016-10-24T02:30:13.403Z,0
2016-10-24T02:31:27.385Z,0
2016-10-24T02:32:40.407Z,0
2016-10-24T02:33:54.276Z,0
2016-10-24T02:35:07.341Z,0
2016-10-24T02:36:21.110Z,0
2016-10-24T02:37:34.589Z,0
2016-10-24T02:38:47.594Z,0
2016-10-24T02:40:00.590Z,0
2016-10-24T02:41:14.191Z,0
2016-10-24T02:42:27.633Z,0
2016-10-24T02:43:41.174Z,0
2016-10-24T02:44:54.715Z,0
2016-10-24T02:46:08.332Z,0
2016-10-24T02:47:21.876Z,0
2016-10-24T02:48:35.506Z,0
2016-10-24T02:49:47.479Z,0
2016-10-24T02:51:01.069Z,0
2016-10-24T02:52:14.630Z,0
2016-10-24T02:53:28.130Z,0
2016-10-24T02:54:41.645Z,0
2016-10-24T02:55:55.226Z,0
2016-10-24T02:57:08.233Z,0
2016-10-24T02:58:21.819Z,0
2016-10-24T02:59:35.309Z,0
2016-10-24T03:00:48.904Z,0
2016-10-24T03:02:01.940Z,0
2016-10-24T03:03:14.985Z,0
2016-10-24T03:04:28.542Z,0
2016-10-24T03:05:42.120Z,0
2016-10-24T03:06:55.660Z,0
2016-10-24T03:08:08.697Z,0
2016-10-24T03:09:22.277Z,0
2016-10-24T03:10:36.093Z,0
2016-10-24T03:11:48.634Z,0
2016-10-24T03:13:02.116Z,0
2016-10-24T03:14:15.192Z,0
2016-10-24T03:15:28.719Z,0
2016-10-24T03:16:41.695Z,0
2016-10-24T03:17:55.246Z,0
2016-10-24T03:19:08.799Z,0
2016-10-24T03:20:22.377Z,0
2016-10-24T03:21:35.924Z,0
2016-10-24T03:22:49.446Z,0
2016-10-24T03:24:03.020Z,0
2016-10-24T03:25:17.001Z,0
2016-10-24T03:26:30.571Z,0
2016-10-24T03:27:43.556Z,0
2016-10-24T03:28:57.466Z,0
2016-10-24T03:30:10.467Z,0
2016-10-24T03:31:23.793Z,0
2016-10-24T03:32:37.425Z,0
2016-10-24T03:33:50.470Z,0
2016-10-24T03:35:04.029Z,0
2016-10-24T03:36:17.060Z,0
2016-10-24T03:37:30.632Z,0
2016-10-24T03:38:44.161Z,0
2016-10-24T03:39:57.714Z,0
2016-10-24T03:41:10.194Z,0
2016-10-24T03:42:23.818Z,0
2016-10-24T03:43:37.434Z,0
2016-10-24T03:44:51.319Z,0
2016-10-24T03:46:04.671Z,0
2016-10-24T03:47:18.218Z,0
2016-10-24T03:48:31.711Z,0
2016-10-24T03:49:44.761Z,0
2016-10-24T03:50:58.273Z,0
2016-10-24T03:52:11.850Z,0
2016-10-24T03:53:25.306Z,0
2016-10-24T03:54:38.817Z,0
2016-10-24T03:55:52.040Z,0
2016-10-24T03:57:05.573Z,0
2016-10-24T03:58:18.611Z,0
2016-10-24T03:59:32.190Z,0
2016-10-24T04:00:45.716Z,0
2016-10-24T04:01:58.826Z,0
2016-10-24T04:03:12.390Z,0
2016-10-24T04:04:25.942Z,0
2016-10-24T04:05:39.527Z,0
2016-10-24T04:06:52.514Z,0
2016-10-24T04:08:06.077Z,0
2016-10-24T04:09:19.055Z,0
2016-10-24T04:10:32.623Z,0
2016-10-24T04:11:46.157Z,0
2016-10-24T04:12:59.264Z,0
2016-10-24T04:14:12.607Z,0
2016-10-24T04:15:26.180Z,0
2016-10-24T04:16:39.225Z,0
2016-10-24T04:17:52.216Z,0
2016-10-24T04:19:05.212Z,0
2016-10-24T04:20:18.282Z,0
2016-10-24T04:21:31.862Z,0
2016-10-24T04:22:44.868Z,0
2016-10-24T04:23:58.475Z,0
2016-10-24T04:25:12.047Z,0
2016-10-24T04:26:25.655Z,0
2016-10-24T04:27:38.664Z,0
2016-10-24T04:28:52.177Z,0
2016-10-24T04:30:05.176Z,0
2016-10-24T04:31:18.774Z,0
2016-10-24T04:32:32.481Z,0
2016-10-24T04:33:45.492Z,0
2016-10-24T04:34:59.085Z,0
2016-10-24T04:36:12.327Z,0
2016-10-24T04:37:25.950Z,0
2016-10-24T04:38:39.251Z,0
2016-10-24T04:39:52.776Z,0
2016-10-24T04:41:05.815Z,0
2016-10-24T04:42:18.878Z,0
2016-10-24T04:43:32.404Z,0
2016-10-24T04:44:45.473Z,0
2016-10-24T04:45:58.458Z,0
2016-10-24T04:47:11.703Z,0
2016-10-24T04:48:25.287Z,0
2016-10-24T04:49:38.870Z,0
2016-10-24T04:50:52.457Z,0
2016-10-24T04:52:06.034Z,0
2016-10-24T04:53:19.645Z,0
2016-10-24T04:54:32.681Z,0
2016-10-24T04:55:45.693Z,0
2016-10-24T04:56:59.304Z,0
2016-10-24T04:58:12.889Z,0
2016-10-24T04:59:25.970Z,0
2016-10-24T05:00:39.433Z,0
2016-10-24T05:01:52.932Z,0
2016-10-24T05:03:06.415Z,0
2016-10-24T05:04:19.489Z,0
2016-10-24T05:05:33.066Z,0
2016-10-24T05:06:46.673Z,0
2016-10-24T05:08:00.609Z,0
2016-10-24T05:09:13.616Z,0
2016-10-24T05:10:27.462Z,0
2016-10-24T05:11:40.496Z,0
2016-10-24T05:12:54.332Z,0
2016-10-24T05:14:06.848Z,0
2016-10-24T05:15:20.332Z,0
2016-10-24T05:16:33.386Z,0
2016-10-24T05:17:46.394Z,0
2016-10-24T05:18:59.987Z,0
2016-10-24T05:20:13.531Z,0
2016-10-24T05:21:26.505Z,0
2016-10-24T05:22:40.012Z,0
2016-10-24T05:23:53.574Z,0
2016-10-24T05:25:07.171Z,0
2016-10-24T05:26:20.188Z,0
2016-10-24T05:27:33.316Z,0
2016-10-24T05:28:46.324Z,0
2016-10-24T05:29:59.854Z,0
2016-10-24T05:31:13.349Z,0
2016-10-24T05:32:26.882Z,0
2016-10-24T05:33:39.919Z,0
2016-10-24T05:34:52.906Z,0
2016-10-24T05:36:06.548Z,0
2016-10-24T05:37:20.087Z,0
2016-10-24T05:38:33.138Z,0
2016-10-24T05:39:46.721Z,0
2016-10-24T05:41:00.532Z,0
2016-10-24T05:42:14.117Z,0
2016-10-24T05:43:27.633Z,0
2016-10-24T05:44:41.211Z,0
2016-10-24T05:45:54.728Z,0
2016-10-24T05:47:07.736Z,0
2016-10-24T05:48:21.324Z,0
2016-10-24T05:49:34.868Z,0
2016-10-24T05:50:48.432Z,0
2016-10-24T05:52:00.956Z,0
2016-10-24T05:53:14.506Z,0
2016-10-24T05:54:28.057Z,0
2016-10-24T05:55:41.125Z,0
2016-10-24T05:56:54.608Z,0
2016-10-24T05:58:07.565Z,0
2016-10-24T05:59:20.851Z,0
2016-10-24T06:00:33.830Z,0
2016-10-24T06:01:47.405Z,0
2016-10-24T06:03:00.675Z,0
2016-10-24T06:04:13.943Z,0
2016-10-24T06:05:27.043Z,0
2016-10-24T06:06:40.021Z,0
2016-10-24T06:07:53.513Z,0
2016-10-24T06:09:07.057Z,0
2016-10-24T06:10:20.574Z,0
2016-10-24T06:11:34.077Z,0
2016-10-24T06:12:47.634Z,0
2016-10-24T06:14:01.178Z,0
2016-10-24T06:15:14.699Z,0
2016-10-24T06:16:28.286Z,0
2016-10-24T06:17:41.824Z,0
2016-10-24T06:18:54.380Z,0
2016-10-24T06:20:07.392Z,0
2016-10-24T06:21:21.301Z,0
2016-10-24T06:22:34.356Z,0
2016-10-24T06:23:47.910Z,0
2016-10-24T06:25:01.530Z,0
2016-10-24T06:26:15.086Z,0
2016-10-24T06:27:28.117Z,0
2016-10-24T06:28:41.198Z,0
2016-10-24T06:29:54.432Z,0
2016-10-24T06:31:07.934Z,0
2016-10-24T06:32:20.384Z,0
2016-10-24T06:33:33.386Z,0
2016-10-24T06:34:45.896Z,0
2016-10-24T06:35:59.468Z,0
2016-10-24T06:37:12.743Z,0
2016-10-24T06:38:25.774Z,0
2016-10-24T06:39:38.834Z,0
2016-10-24T06:40:52.380Z,0
2016-10-24T06:42:05.468Z,0
2016-10-24T06:43:18.528Z,0
2016-10-24T06:44:31.578Z,0
2016-10-24T06:45:44.663Z,0
2016-10-24T06:46:58.199Z,0
2016-10-24T06:48:11.324Z,0
2016-10-24T06:49:24.866Z,0
2016-10-24T06:50:38.455Z,0
2016-10-24T06:51:51.431Z,0
2016-10-24T06:53:04.954Z,0
2016-10-24T06:54:18.420Z,0
2016-10-24T06:55:32.031Z,0
2016-10-24T06:56:44.968Z,0
2016-10-24T06:57:58.005Z,0
2016-10-24T06:59:10.505Z,0
2016-10-24T07:00:22.990Z,0
2016-10-24T07:01:36.534Z,0
2016-10-24T07:02:50.124Z,0
2016-10-24T07:04:03.715Z,0
2016-10-24T07:05:16.783Z,0
2016-10-24T07:06:30.658Z,0
2016-10-24T07:07:44.188Z,0
2016-10-24T07:08:57.801Z,0
2016-10-24T07:10:11.455Z,0
2016-10-24T07:11:25.008Z,0
2016-10-24T07:12:36.925Z,0
2016-10-24T07:13:50.445Z,0
2016-10-24T07:15:03.978Z,0
2016-10-24T07:16:17.578Z,0
2016-10-24T07:17:31.148Z,0
2016-10-24T07:18:44.776Z,0
2016-10-24T07:19:58.299Z,0
2016-10-24T07:21:11.355Z,0
2016-10-24T07:22:24.455Z,0
2016-10-24T07:23:38.065Z,0
2016-10-24T07:24:51.545Z,0
2016-10-24T07:26:04.527Z,0
2016-10-24T07:27:17.815Z,0
2016-10-24T07:28:31.382Z,0
2016-10-24T07:29:44.981Z,0
2016-10-24T07:30:58.058Z,0
2016-10-24T07:32:11.116Z,0
2016-10-24T07:33:24.647Z,0
2016-10-24T07:34:38.141Z,0
2016-10-24T07:35:51.417Z,0
2016-10-24T07:37:05.046Z,0
2016-10-24T07:38:18.580Z,0
2016-10-24T07:39:31.537Z,0
2016-10-24T07:40:45.078Z,0
2016-10-24T07:41:58.032Z,0
2016-10-24T07:43:11.067Z,0
2016-10-24T07:44:24.627Z,0
2016-10-24T07:45:37.680Z,0
2016-10-24T07:46:51.473Z,0
2016-10-24T07:48:04.448Z,0
2016-10-24T07:49:17.424Z,0
2016-10-24T07:50:30.964Z,0
2016-10-24T07:51:43.975Z,0
2016-10-24T07:52:57.146Z,0
2016-10-24T07:54:10.151Z,0
2016-10-24T07:55:23.734Z,0
2016-10-24T07:56:36.230Z,0
2016-10-24T07:57:49.731Z,0
2016-10-24T07:59:03.330Z,0
2016-10-24T08:00:16.311Z,0
2016-10-24T08:01:29.917Z,0
2016-10-24T08:02:43.439Z,0
2016-10-24T08:03:56.990Z,0
2016-10-24T08:05:09.997Z,0
2016-10-24T08:06:23.592Z,0
2016-10-24T08:07:36.589Z,0
2016-10-24T08:08:49.600Z,0
2016-10-24T08:10:03.214Z,0
2016-10-24T08:11:16.827Z,0
2016-10-24T08:12:30.684Z,0
2016-10-24T08:13:43.971Z,0
2016-10-24T08:14:57.685Z,0
2016-10-24T08:16:11.269Z,0
2016-10-24T08:17:24.521Z,0
2016-10-24T08:18:37.285Z,0
2016-10-24T08:19:50.560Z,0
2016-10-24T08:21:03.532Z,0
2016-10-24T08:22:16.678Z,0
2016-10-24T08:23:30.259Z,0
2016-10-24T08:24:43.553Z,0
2016-10-24T08:25:56.265Z,0
2016-10-24T08:27:09.829Z,0
2016-10-24T08:28:23.419Z,0
2016-10-24T08:29:36.493Z,0
2016-10-24T08:30:50.046Z,0
2016-10-24T08:32:03.707Z,0
2016-10-24T08:33:16.745Z,0
2016-10-24T08:34:28.691Z,0
2016-10-24T08:35:42.265Z,0
2016-10-24T08:36:55.339Z,0
2016-10-24T08:38:08.882Z,0
2016-10-24T08:39:21.870Z,0
2016-10-24T08:40:35.479Z,0
2016-10-24T08:41:48.563Z,0
2016-10-24T08:43:02.116Z,0
2016-10-24T08:44:15.128Z,0
2016-10-24T08:45:28.122Z,0
2016-10-24T08:46:41.688Z,0
2016-10-24T08:47:55.290Z,5
2016-10-24T08:49:08.870Z,5
2016-10-24T08:50:22.459Z,5
2016-10-24T08:51:35.538Z,5
2016-10-24T08:52:49.092Z,5
2016-10-24T08:54:02.095Z,5
2016-10-24T08:55:15.644Z,5
2016-10-24T08:56:28.722Z,5
2016-10-24T08:57:41.724Z,5
2016-10-24T08:58:55.298Z,5
2016-10-24T09:00:08.860Z,5
2016-10-24T09:01:21.851Z,5
2016-10-24T09:02:34.858Z,5
2016-10-24T09:03:47.877Z,5
2016-10-24T09:05:01.454Z,5
2016-10-24T09:06:14.468Z,5
2016-10-24T09:07:28.050Z,5
2016-10-24T09:08:41.332Z,5
2016-10-24T09:09:54.866Z,5
2016-10-24T09:11:07.892Z,5
2016-10-24T09:12:20.916Z,5
2016-10-24T09:13:33.930Z,5
2016-10-24T09:14:46.910Z,10
2016-10-24T09:16:00.787Z,10
2016-10-24T09:17:14.276Z,10
2016-10-24T09:18:27.860Z,10
2016-10-24T09:19:40.853Z,10
2016-10-24T09:20:54.577Z,10
2016-10-24T09:22:07.558Z,10
2016-10-24T09:23:20.026Z,10
2016-10-24T09:24:33.840Z,10
2016-10-24T09:25:47.421Z,10
2016-10-24T09:27:00.804Z,10
2016-10-24T09:28:13.772Z,10
2016-10-24T09:29:27.693Z,10
2016-10-24T09:30:40.680Z,15
2016-10-24T09:31:54.553Z,15
2016-10-24T09:33:07.564Z,15
2016-10-24T09:34:21.472Z,15
2016-10-24T09:35:35.011Z,15
2016-10-24T09:36:47.423Z,15
2016-10-24T09:38:01.010Z,20
2016-10-24T09:39:13.970Z,20
2016-10-24T09:40:27.140Z,25
2016-10-24T09:41:40.637Z,25
2016-10-24T09:42:53.641Z,25
2016-10-24T09:44:07.207Z,25
2016-10-24T09:45:20.248Z,25
2016-10-24T09:46:33.904Z,25
2016-10-24T09:47:47.379Z,30
2016-10-24T09:49:00.971Z,30
2016-10-24T09:50:14.002Z,30
2016-10-24T09:51:26.586Z,30
2016-10-24T09:52:39.649Z,30
2016-10-24T09:53:53.261Z,30
2016-10-24T09:55:06.831Z,30
2016-10-24T09:56:20.345Z,30
2016-10-24T09:57:33.893Z,35
2016-10-24T09:58:47.374Z,35
2016-10-24T10:00:00.899Z,35
2016-10-24T10:01:14.486Z,35
2016-10-24T10:02:28.065Z,35
2016-10-24T10:03:41.083Z,40
2016-10-24T10:04:54.703Z,40
2016-10-24T10:06:08.237Z,40
2016-10-24T10:07:21.821Z,40
2016-10-24T10:08:35.347Z,40
2016-10-24T10:09:48.947Z,35
2016-10-24T10:11:01.647Z,40
2016-10-24T10:12:14.667Z,40
2016-10-24T10:13:28.270Z,40
2016-10-24T10:14:41.849Z,40
2016-10-24T10:15:55.367Z,35
2016-10-24T10:17:08.941Z,35
2016-10-24T10:18:22.502Z,35
2016-10-24T10:19:35.542Z,35
2016-10-24T10:20:48.007Z,35
2016-10-24T10:22:01.520Z,30
2016-10-24T10:23:15.086Z,30
2016-10-24T10:24:28.088Z,30
2016-10-24T10:25:41.712Z,30
2016-10-24T10:26:55.287Z,30
2016-10-24T10:28:08.922Z,30
2016-10-24T10:29:22.456Z,30
2016-10-24T10:30:35.540Z,30
2016-10-24T10:31:49.244Z,30
2016-10-24T10:33:02.825Z,30
2016-10-24T10:34:16.426Z,30
2016-10-24T10:35:30.025Z,30
2016-10-24T10:36:43.594Z,30
2016-10-24T10:37:57.167Z,30
2016-10-24T10:39:10.762Z,30
2016-10-24T10:40:24.649Z,30
2016-10-24T10:41:38.231Z,30
2016-10-24T10:42:51.800Z,30
2016-10-24T10:44:05.313Z,30
2016-10-24T10:45:18.887Z,30
2016-10-24T10:46:31.935Z,30
2016-10-24T10:47:44.954Z,30
2016-10-24T10:48:58.512Z,35
2016-10-24T10:50:12.061Z,35
2016-10-24T10:51:25.044Z,35
2016-10-24T10:52:38.544Z,35
2016-10-24T10:53:52.025Z,35
2016-10-24T10:55:05.086Z,35
2016-10-24T10:56:17.608Z,30
2016-10-24T10:57:30.649Z,30
2016-10-24T10:58:44.230Z,30
2016-10-24T10:59:57.268Z,30
2016-10-24T11:01:10.821Z,30
2016-10-24T11:02:24.620Z,30
2016-10-24T11:03:38.179Z,30
2016-10-24T11:04:51.801Z,30
2016-10-24T11:06:05.423Z,30
2016-10-24T11:07:18.955Z,30
2016-10-24T11:08:32.037Z,30
2016-10-24T11:09:45.643Z,30
2016-10-24T11:10:58.666Z,30
2016-10-24T11:12:11.733Z,30
2016-10-24T11:13:25.263Z,35
2016-10-24T11:14:38.231Z,35
2016-10-24T11:15:51.550Z,35
2016-10-24T11:17:05.117Z,35
2016-10-24T11:18:18.718Z,35
2016-10-24T11:19:31.697Z,35
2016-10-24T11:20:44.997Z,35
2016-10-24T11:21:58.085Z,35
2016-10-24T11:23:10.508Z,35
2016-10-24T11:24:23.239Z,35
2016-10-24T11:25:36.845Z,35
2016-10-24T11:26:50.397Z,35
2016-10-24T11:28:03.773Z,35
2016-10-24T11:29:16.756Z,35
2016-10-24T11:30:30.310Z,35
2016-10-24T11:31:43.871Z,35
2016-10-24T11:32:57.263Z,35
2016-10-24T11:34:10.843Z,35
2016-10-24T11:35:23.911Z,40
2016-10-24T11:36:37.428Z,40
2016-10-24T11:37:50.472Z,40
2016-10-24T11:39:02.988Z,40
2016-10-24T11:40:16.531Z,40
2016-10-24T11:41:29.499Z,45
2016-10-24T11:42:42.531Z,45
2016-10-24T11:43:55.546Z,45
2016-10-24T11:45:09.199Z,45
2016-10-24T11:46:22.936Z,50
2016-10-24T11:47:36.460Z,50
2016-10-24T11:48:50.037Z,55
2016-10-24T11:50:03.813Z,55
2016-10-24T11:51:16.754Z,60
2016-10-24T11:52:30.395Z,60
2016-10-24T11:53:44.034Z,60
2016-10-24T11:54:57.240Z,65
2016-10-24T11:56:10.254Z,70
2016-10-24T11:57:23.260Z,70
2016-10-24T11:58:36.359Z,75
2016-10-24T11:59:49.895Z,80
2016-10-24T12:01:03.399Z,85
2016-10-24T12:02:16.471Z,85
2016-10-24T12:03:29.969Z,85
2016-10-24T12:04:42.950Z,85
2016-10-24T12:05:56.561Z,90
2016-10-24T12:07:09.601Z,95
2016-10-24T12:08:23.146Z,100
2016-10-24T12:09:36.708Z,100
2016-10-24T12:10:50.289Z,105
2016-10-24T12:12:03.801Z,105
2016-10-24T12:13:17.351Z,105
2016-10-24T12:14:30.893Z,105
2016-10-24T12:15:44.386Z,105
2016-10-24T12:16:57.996Z,110
2016-10-24T12:18:11.486Z,110
2016-10-24T12:19:25.138Z,115
2016-10-24T12:20:38.146Z,110
2016-10-24T12:21:51.547Z,115
2016-10-24T12:23:04.585Z,115
2016-10-24T12:24:17.588Z,110
2016-10-24T12:25:30.872Z,120
2016-10-24T12:26:44.515Z,125
2016-10-24T12:27:57.518Z,120
2016-10-24T12:29:11.070Z,125
2016-10-24T12:30:24.375Z,125
2016-10-24T12:31:37.920Z,125
2016-10-24T12:32:51.538Z,130
2016-10-24T12:35:17.422Z,135
2016-10-24T12:36:30.982Z,135
2016-10-24T12:37:44.264Z,135
2016-10-24T12:38:57.296Z,135
2016-10-24T12:40:10.601Z,145
2016-10-24T12:41:24.137Z,145
2016-10-24T12:42:37.386Z,145
2016-10-24T12:43:50.647Z,145
2016-10-24T12:45:04.189Z,145
2016-10-24T12:46:17.425Z,150
2016-10-24T12:47:30.988Z,155
2016-10-24T12:48:44.092Z,155
2016-10-24T12:49:56.537Z,155
2016-10-24T12:51:09.614Z,160
2016-10-24T12:52:23.191Z,165
2016-10-24T12:53:36.750Z,170
2016-10-24T12:54:49.753Z,170
2016-10-24T12:56:02.811Z,165
2016-10-24T12:57:16.303Z,165
2016-10-24T12:58:29.884Z,170
2016-10-24T12:59:42.950Z,175
2016-10-24T13:00:56.505Z,175
2016-10-24T13:02:10.130Z,175
2016-10-24T13:03:23.660Z,180
2016-10-24T13:04:37.254Z,180
2016-10-24T13:05:50.904Z,180
2016-10-24T13:07:04.427Z,185
2016-10-24T13:08:17.426Z,190
2016-10-24T13:09:31.071Z,190
2016-10-24T13:10:44.456Z,200
2016-10-24T13:11:58.014Z,195
2016-10-24T13:13:11.618Z,195
2016-10-24T13:14:24.955Z,205
2016-10-24T13:15:38.554Z,205
2016-10-24T13:16:52.133Z,210
2016-10-24T13:18:05.113Z,210
2016-10-24T13:19:18.717Z,215
2016-10-24T13:20:32.272Z,215
2016-10-24T13:21:44.822Z,220
2016-10-24T13:22:58.073Z,225
2016-10-24T13:24:11.582Z,215
2016-10-24T13:25:25.137Z,195
2016-10-24T13:26:38.199Z,170
2016-10-24T13:27:51.579Z,170
2016-10-24T13:29:04.074Z,220
2016-10-24T13:30:17.576Z,110
2016-10-24T13:31:30.903Z,165
2016-10-24T13:32:43.961Z,215
2016-10-24T13:33:57.818Z,250
2016-10-24T13:35:10.878Z,225
2016-10-24T13:36:24.708Z,235
2016-10-24T13:37:38.227Z,235
2016-10-24T13:38:51.782Z,225
2016-10-24T13:40:05.424Z,235
2016-10-24T13:41:18.474Z,250
2016-10-24T13:42:32.025Z,255
2016-10-24T13:43:45.082Z,265
2016-10-24T13:44:58.693Z,260
2016-10-24T13:46:12.321Z,265
2016-10-24T13:47:25.872Z,270
2016-10-24T13:48:39.475Z,270
2016-10-24T13:49:52.452Z,270
2016-10-24T13:51:06.007Z,270
2016-10-24T13:52:19.571Z,270
2016-10-24T13:53:33.121Z,280
2016-10-24T13:54:46.671Z,285
2016-10-24T13:55:59.928Z,285
2016-10-24T13:57:13.596Z,290
2016-10-24T13:58:26.647Z,290
2016-10-24T13:59:40.205Z,295
2016-10-24T14:00:53.738Z,300
2016-10-24T14:02:06.284Z,300
2016-10-24T14:03:19.295Z,310
2016-10-24T14:04:32.854Z,305
2016-10-24T14:05:45.863Z,305
2016-10-24T14:06:59.514Z,320
2016-10-24T14:08:12.567Z,335
2016-10-24T14:09:26.182Z,340
2016-10-24T14:10:38.718Z,350
2016-10-24T14:11:52.323Z,350
2016-10-24T14:13:05.406Z,345
2016-10-24T14:14:19.006Z,350
2016-10-24T14:15:32.646Z,350
2016-10-24T14:16:46.219Z,345
2016-10-24T14:17:59.345Z,340
2016-10-24T14:19:12.914Z,345
2016-10-24T14:20:26.496Z,350
2016-10-24T14:21:39.741Z,355
2016-10-24T14:22:53.309Z,355
2016-10-24T14:24:06.812Z,355
2016-10-24T14:25:19.843Z,355
2016-10-24T14:26:32.833Z,365
2016-10-24T14:27:45.961Z,370
2016-10-24T14:28:59.610Z,380
2016-10-24T14:30:12.637Z,380
2016-10-24T14:31:26.234Z,385
2016-10-24T14:32:39.256Z,390
2016-10-24T14:33:52.799Z,390
2016-10-24T14:35:05.807Z,390
2016-10-24T14:36:18.841Z,390
2016-10-24T14:37:30.881Z,385
2016-10-24T14:38:43.683Z,390
2016-10-24T14:39:57.224Z,390
2016-10-24T14:41:10.814Z,400
2016-10-24T14:42:23.842Z,415
2016-10-24T14:43:37.352Z,410
2016-10-24T14:44:50.385Z,85
2016-10-24T14:46:03.498Z,400
2016-10-24T14:47:16.491Z,420
2016-10-24T14:48:29.527Z,315
2016-10-24T14:49:42.528Z,95
2016-10-24T14:50:56.227Z,405
2016-10-24T14:52:09.292Z,100
2016-10-24T14:53:21.831Z,415
2016-10-24T14:54:35.169Z,405
2016-10-24T14:55:48.746Z,290
2016-10-24T14:57:01.819Z,410
2016-10-24T14:58:14.910Z,425
2016-10-24T14:59:28.459Z,420
2016-10-24T15:00:42.057Z,405
2016-10-24T15:01:55.131Z,415
2016-10-24T15:03:08.739Z,425
2016-10-24T15:04:21.849Z,425
2016-10-24T15:05:35.135Z,250
2016-10-24T15:06:48.665Z,365
2016-10-24T15:08:02.330Z,360
2016-10-24T15:09:15.924Z,100
2016-10-24T15:10:29.239Z,410
2016-10-24T15:11:42.808Z,425
2016-10-24T15:12:56.358Z,385
2016-10-24T15:14:09.927Z,100
2016-10-24T15:15:22.424Z,115
2016-10-24T15:16:36.028Z,100
2016-10-24T15:17:49.588Z,200
2016-10-24T15:19:02.841Z,100
2016-10-24T15:20:16.386Z,100
2016-10-24T15:21:29.373Z,85
2016-10-24T15:22:42.860Z,85
2016-10-24T15:23:56.116Z,85
2016-10-24T15:25:08.417Z,90
2016-10-24T15:26:21.729Z,85
2016-10-24T15:27:35.384Z,95
2016-10-24T15:28:48.163Z,85
2016-10-24T15:30:01.250Z,80
2016-10-24T15:31:14.811Z,75
2016-10-24T15:32:28.360Z,245
2016-10-24T15:33:41.375Z,95
2016-10-24T15:34:54.734Z,105
2016-10-24T15:36:07.171Z,315
2016-10-24T15:37:19.611Z,390
2016-10-24T15:38:32.727Z,435
2016-10-24T15:39:46.327Z,435
2016-10-24T15:40:59.360Z,430
2016-10-24T15:42:12.939Z,435
2016-10-24T15:43:25.414Z,455
2016-10-24T15:44:39.047Z,465
2016-10-24T15:45:52.131Z,475
2016-10-24T15:47:05.241Z,470
2016-10-24T15:48:18.454Z,460
2016-10-24T15:49:32.116Z,460
2016-10-24T15:50:45.142Z,420
2016-10-24T15:51:57.659Z,80
2016-10-24T15:53:10.713Z,70
2016-10-24T15:54:23.760Z,85
2016-10-24T15:55:37.319Z,75
2016-10-24T15:56:50.920Z,65
2016-10-24T15:58:03.448Z,65
2016-10-24T15:59:17.034Z,75
2016-10-24T16:00:30.922Z,90
2016-10-24T16:01:44.467Z,105
2016-10-24T16:02:57.983Z,100
2016-10-24T16:04:11.077Z,275
2016-10-24T16:05:23.708Z,435
2016-10-24T16:06:37.227Z,440
2016-10-24T16:07:50.660Z,425
2016-10-24T16:09:04.043Z,425
2016-10-24T16:10:17.076Z,420
2016-10-24T16:11:31.029Z,440
2016-10-24T16:12:44.579Z,435
2016-10-24T16:13:57.866Z,420
2016-10-24T16:15:11.398Z,405
2016-10-24T16:16:24.787Z,395
2016-10-24T16:17:38.351Z,395
2016-10-24T16:18:51.920Z,390
2016-10-24T16:20:05.487Z,385
2016-10-24T16:21:18.587Z,410
2016-10-24T16:22:31.637Z,400
2016-10-24T16:23:45.305Z,405
2016-10-24T16:24:58.360Z,430
2016-10-24T16:26:11.879Z,440
2016-10-24T16:27:25.404Z,385
2016-10-24T16:28:38.484Z,445
2016-10-24T16:29:51.670Z,435
2016-10-24T16:31:04.728Z,415
2016-10-24T16:32:18.579Z,430
2016-10-24T16:33:32.168Z,430
2016-10-24T16:34:45.729Z,425
2016-10-24T16:35:59.324Z,420
2016-10-24T16:37:12.945Z,405
2016-10-24T16:38:26.349Z,405
2016-10-24T16:39:39.939Z,395
2016-10-24T16:40:53.429Z,145
2016-10-24T16:42:06.477Z,380
2016-10-24T16:43:20.020Z,370
2016-10-24T16:44:33.598Z,60
2016-10-24T16:45:46.655Z,55
2016-10-24T16:47:00.211Z,50
2016-10-24T16:48:13.258Z,45
2016-10-24T16:49:26.794Z,45
2016-10-24T16:50:40.382Z,40
2016-10-24T16:51:53.979Z,45
2016-10-24T16:53:07.536Z,45
2016-10-24T16:54:20.833Z,50
2016-10-24T16:55:34.354Z,50
2016-10-24T16:56:47.908Z,55
2016-10-24T16:58:00.942Z,260
2016-10-24T16:59:14.008Z,260
2016-10-24T17:00:26.870Z,265
2016-10-24T17:01:39.973Z,255
2016-10-24T17:02:53.639Z,290
2016-10-24T17:04:06.145Z,295
2016-10-24T17:05:19.747Z,295
2016-10-24T17:06:32.786Z,295
2016-10-24T17:07:45.923Z,300
2016-10-24T17:08:59.493Z,300
2016-10-24T17:10:12.661Z,295
2016-10-24T17:11:26.230Z,80
2016-10-24T17:12:39.533Z,60
2016-10-24T17:13:53.069Z,50
2016-10-24T17:15:06.607Z,45
2016-10-24T17:16:20.132Z,45
2016-10-24T17:17:33.167Z,45
2016-10-24T17:18:46.707Z,50
2016-10-24T17:20:00.270Z,50
2016-10-24T17:21:13.913Z,50
2016-10-24T17:22:26.445Z,50
2016-10-24T17:23:39.676Z,50
2016-10-24T17:24:52.759Z,60
2016-10-24T17:26:06.358Z,65
2016-10-24T17:27:19.948Z,60
2016-10-24T17:28:33.519Z,60
2016-10-24T17:29:46.505Z,65
2016-10-24T17:30:59.814Z,80
2016-10-24T17:32:13.357Z,195
2016-10-24T17:33:26.898Z,175
2016-10-24T17:34:40.404Z,200
2016-10-24T17:35:53.959Z,220
2016-10-24T17:37:06.749Z,215